createdAt,value
2018-02-17T00:01:15.818Z,1.00
2018-02-17T00:03:43.685Z,1.00
2018-02-17T00:06:11.554Z,1.00
2018-02-17T00:08:39.425Z,1.00
2018-02-17T00:11:07.293Z,1.00
2018-02-17T00:13:35.162Z,1.10
2018-02-17T00:16:03.030Z,0.90
2018-02-17T00:18:30.899Z,0.90
2018-02-17T00:20:58.769Z,0.90
2018-02-17T00:23:26.638Z,0.80
2018-02-17T00:25:54.506Z,0.80
2018-02-17T00:28:22.310Z,0.80
2018-02-17T00:30:50.961Z,0.90
2018-02-17T00:33:18.831Z,0.90
2018-02-17T00:35:46.700Z,1.00
2018-02-17T00:38:14.568Z,1.10
2018-02-17T00:40:42.439Z,1.10
2018-02-17T00:43:10.308Z,1.20
2018-02-17T00:45:38.176Z,1.00
2018-02-17T00:48:06.044Z,1.10
2018-02-17T00:50:33.914Z,1.10
2018-02-17T00:53:01.783Z,1.10
2018-02-17T00:55:29.652Z,1.10
2018-02-17T00:57:57.517Z,1.00
2018-02-17T01:00:25.390Z,1.10
2018-02-17T01:02:53.265Z,1.10
2018-02-17T01:05:23.907Z,1.00
2018-02-17T01:07:51.760Z,1.00
2018-02-17T01:10:19.633Z,1.00
2018-02-17T01:12:47.503Z,0.90
2018-02-17T01:15:15.366Z,0.90
2018-02-17T01:17:43.234Z,0.90
2018-02-17T01:20:11.102Z,0.80
2018-02-17T01:22:38.971Z,0.70
2018-02-17T01:25:06.839Z,0.90
2018-02-17T01:27:34.706Z,0.90
2018-02-17T01:30:02.574Z,0.90
2018-02-17T01:32:30.442Z,0.80
2018-02-17T01:34:58.311Z,0.70
2018-02-17T01:37:26.182Z,0.70
2018-02-17T01:39:54.048Z,0.70
2018-02-17T01:42:21.914Z,0.70
2018-02-17T01:44:49.783Z,0.60
2018-02-17T01:47:17.651Z,0.60
2018-02-17T01:49:45.518Z,0.60
2018-02-17T01:52:13.386Z,0.60
2018-02-17T01:54:41.256Z,0.60
2018-02-17T01:57:09.840Z,0.60
2018-02-17T01:59:37.711Z,0.60
2018-02-17T02:02:05.574Z,0.60
2018-02-17T02:04:33.442Z,0.60
2018-02-17T02:07:01.310Z,0.70
2018-02-17T02:09:29.178Z,0.70
2018-02-17T02:11:57.046Z,0.70
2018-02-17T02:14:24.916Z,0.80
2018-02-17T02:16:52.780Z,0.70
2018-02-17T02:19:20.649Z,0.70
2018-02-17T02:21:48.517Z,0.70
2018-02-17T02:24:16.383Z,0.80
2018-02-17T02:26:44.251Z,0.80
2018-02-17T02:29:12.120Z,0.70
2018-02-17T02:31:39.986Z,0.70
2018-02-17T02:34:07.856Z,0.70
2018-02-17T02:36:35.723Z,0.70
2018-02-17T02:39:03.692Z,0.80
2018-02-17T02:41:34.641Z,0.70
2018-02-17T02:44:02.500Z,0.80
2018-02-17T02:46:30.366Z,0.90
2018-02-17T02:48:58.236Z,0.90
2018-02-17T02:51:26.101Z,0.90
2018-02-17T02:53:53.968Z,0.90
2018-02-17T02:56:21.837Z,1.00
2018-02-17T02:58:49.705Z,1.00
2018-02-17T03:01:17.574Z,0.90
2018-02-17T03:03:45.439Z,1.00
2018-02-17T03:06:13.307Z,1.00
2018-02-17T03:08:41.175Z,1.00
2018-02-17T03:11:09.046Z,1.00
2018-02-17T03:13:36.908Z,1.00
2018-02-17T03:16:04.777Z,1.00
2018-02-17T03:18:32.644Z,1.00
2018-02-17T03:21:00.511Z,0.90
2018-02-17T03:23:28.379Z,0.90
2018-02-17T03:25:56.245Z,1.00
2018-02-17T03:28:24.215Z,1.00
2018-02-17T03:30:52.088Z,1.00
2018-02-17T03:33:19.950Z,0.90
2018-02-17T03:35:47.818Z,0.90
2018-02-17T03:38:15.686Z,1.00
2018-02-17T03:40:43.552Z,0.90
2018-02-17T03:43:16.893Z,0.90
2018-02-17T03:45:45.533Z,0.90
2018-02-17T03:48:13.254Z,0.90
2018-02-17T03:50:41.005Z,1.00
2018-02-17T03:53:09.495Z,0.90
2018-02-17T03:55:37.222Z,0.90
2018-02-17T03:58:04.958Z,0.90
2018-02-17T04:00:32.679Z,0.80
2018-02-17T04:03:00.402Z,0.80
2018-02-17T04:05:28.174Z,0.90
2018-02-17T04:07:55.943Z,0.80
2018-02-17T04:10:23.671Z,0.80
2018-02-17T04:12:51.558Z,0.90
2018-02-17T04:15:19.425Z,0.90
2018-02-17T04:17:47.291Z,1.00
2018-02-17T04:20:15.158Z,1.00
2018-02-17T04:22:43.027Z,1.10
2018-02-17T04:25:10.893Z,1.10
2018-02-17T04:27:38.761Z,1.30
2018-02-17T04:30:06.558Z,1.30
2018-02-17T04:32:35.210Z,1.10
2018-02-17T04:35:03.078Z,1.10
2018-02-17T04:37:30.944Z,1.20
2018-02-17T04:40:16.628Z,1.10
2018-02-17T04:42:44.515Z,1.10
2018-02-17T04:45:19.122Z,1.10
2018-02-17T04:47:47.680Z,1.10
2018-02-17T04:50:31.240Z,1.00
2018-02-17T04:53:18.769Z,0.90
2018-02-17T04:56:02.303Z,1.00
2018-02-17T04:58:31.910Z,1.10
2018-02-17T05:01:00.596Z,1.00
2018-02-17T05:03:28.463Z,1.00
2018-02-17T05:05:56.330Z,1.00
2018-02-17T05:08:28.907Z,1.00
2018-02-17T05:10:56.774Z,1.10
2018-02-17T05:13:24.745Z,1.20
2018-02-17T05:16:07.459Z,1.20
2018-02-17T05:18:40.741Z,1.20
2018-02-17T05:21:10.113Z,1.20
2018-02-17T05:23:39.967Z,1.30
2018-02-17T05:26:10.396Z,1.20
2018-02-17T05:28:52.357Z,1.20
2018-02-17T05:31:22.321Z,1.20
2018-02-17T05:33:52.944Z,1.10
2018-02-17T05:36:26.546Z,1.00
2018-02-17T05:39:03.113Z,1.00
2018-02-17T05:41:36.612Z,0.90
2018-02-17T05:44:04.477Z,1.00
2018-02-17T05:46:38.286Z,1.00
2018-02-17T05:49:08.851Z,1.00
2018-02-17T05:51:37.499Z,1.10
2018-02-17T05:54:05.365Z,1.10
2018-02-17T05:56:33.233Z,1.30
2018-02-17T05:59:01.099Z,1.40
2018-02-17T06:01:28.968Z,1.40
2018-02-17T06:03:56.834Z,1.50
2018-02-17T06:06:24.700Z,1.40
2018-02-17T06:08:52.567Z,1.30
2018-02-17T06:11:20.435Z,1.20
2018-02-17T06:13:48.301Z,1.10
2018-02-17T06:16:16.169Z,1.10
2018-02-17T06:18:44.037Z,1.10
2018-02-17T06:21:11.903Z,1.10
2018-02-17T06:23:39.974Z,1.20
2018-02-17T06:26:09.194Z,1.40
2018-02-17T06:28:37.142Z,1.40
2018-02-17T06:31:08.300Z,1.40
2018-02-17T06:33:36.154Z,1.30
2018-02-17T06:36:04.020Z,1.30
2018-02-17T06:38:32.296Z,1.20
2018-02-17T06:41:00.163Z,1.10
2018-02-17T06:43:28.036Z,1.10
2018-02-17T06:46:01.220Z,1.10
2018-02-17T06:48:36.106Z,1.00
2018-02-17T06:51:11.865Z,1.00
2018-02-17T06:53:47.364Z,1.00
2018-02-17T06:56:22.747Z,1.10
2018-02-17T06:58:57.495Z,1.10
2018-02-17T07:01:31.475Z,1.10
2018-02-17T07:04:07.501Z,1.20
2018-02-17T07:06:40.775Z,1.10
2018-02-17T07:09:14.831Z,1.20
2018-02-17T07:11:48.140Z,1.30
2018-02-17T07:14:21.429Z,1.40
2018-02-17T07:16:54.303Z,1.50
2018-02-17T07:19:27.095Z,1.50
2018-02-17T07:22:00.672Z,1.60
2018-02-17T07:24:34.875Z,1.60
2018-02-17T07:27:08.476Z,1.50
2018-02-17T07:29:42.834Z,1.40
2018-02-17T07:32:17.173Z,1.30
2018-02-17T07:34:51.633Z,1.30
2018-02-17T07:37:26.969Z,1.30
2018-02-17T07:40:04.155Z,1.20
2018-02-17T07:42:40.296Z,1.20
2018-02-17T07:45:15.524Z,1.40
2018-02-17T07:47:50.183Z,1.50
2018-02-17T07:50:26.605Z,1.60
2018-02-17T07:53:02.580Z,1.60
2018-02-17T07:55:35.506Z,1.50
2018-02-17T07:58:07.557Z,1.50
2018-02-17T08:00:39.904Z,1.40
2018-02-17T08:03:12.228Z,1.50
2018-02-17T08:05:45.236Z,1.50
2018-02-17T08:08:18.439Z,1.50
2018-02-17T08:10:52.177Z,1.50
2018-02-17T08:13:24.288Z,1.50
2018-02-17T08:15:52.030Z,1.50
2018-02-17T08:18:19.899Z,1.60
2018-02-17T08:20:47.785Z,1.60
2018-02-17T08:23:15.631Z,1.60
2018-02-17T08:25:43.499Z,1.60
2018-02-17T08:28:11.365Z,1.70
2018-02-17T08:30:39.235Z,1.80
2018-02-17T08:33:07.100Z,1.80
2018-02-17T08:35:34.968Z,1.80
2018-02-17T08:38:02.836Z,1.80
2018-02-17T08:40:30.703Z,1.90
2018-02-17T08:42:58.571Z,2.00
2018-02-17T08:45:26.437Z,2.10
2018-02-17T08:47:54.305Z,2.20
2018-02-17T08:50:22.172Z,2.10
2018-02-17T08:52:50.040Z,2.10
2018-02-17T08:55:17.908Z,2.10
2018-02-17T08:57:45.775Z,2.20
2018-02-17T09:00:13.745Z,2.40
2018-02-17T09:02:41.615Z,2.40
2018-02-17T09:05:09.478Z,2.50
2018-02-17T09:07:37.347Z,2.60
2018-02-17T09:10:05.215Z,2.70
2018-02-17T09:12:33.081Z,2.80
2018-02-17T09:15:00.949Z,2.90
2018-02-17T09:17:28.816Z,2.90
2018-02-17T09:19:56.683Z,3.00
2018-02-17T09:22:24.551Z,3.00
2018-02-17T09:24:52.417Z,3.00
2018-02-17T09:27:20.284Z,3.00
2018-02-17T09:29:48.361Z,3.00
2018-02-17T09:32:16.225Z,3.00
2018-02-17T09:34:44.091Z,3.00
2018-02-17T09:37:11.960Z,2.90
2018-02-17T09:39:39.826Z,3.10
2018-02-17T09:42:07.796Z,3.30
2018-02-17T09:44:35.664Z,3.50
2018-02-17T09:47:03.531Z,3.60
2018-02-17T09:49:31.332Z,3.70
2018-02-17T09:51:59.982Z,4.00
2018-02-17T09:54:27.698Z,4.00
2018-02-17T09:56:55.419Z,4.10
2018-02-17T09:59:23.141Z,4.20
2018-02-17T10:01:50.873Z,4.30
2018-02-17T10:04:19.371Z,4.20
2018-02-17T10:06:48.281Z,4.20
2018-02-17T10:09:17.180Z,4.30
2018-02-17T10:11:45.732Z,4.30
2018-02-17T10:14:14.230Z,4.40
2018-02-17T10:16:41.953Z,4.40
2018-02-17T10:19:09.674Z,4.50
2018-02-17T10:21:37.390Z,4.30
2018-02-17T10:24:05.120Z,4.40
2018-02-17T10:26:32.979Z,4.40
2018-02-17T10:29:00.890Z,4.30
2018-02-17T10:31:29.384Z,4.10
2018-02-17T10:33:57.882Z,4.10
2018-02-17T10:36:26.014Z,4.00
2018-02-17T10:38:54.640Z,3.90
2018-02-17T10:41:22.429Z,3.90
2018-02-17T10:43:50.163Z,3.80
2018-02-17T10:46:17.878Z,3.80
2018-02-17T10:48:49.493Z,3.90
2018-02-17T10:51:24.936Z,3.90
2018-02-17T10:53:56.741Z,3.90
2018-02-17T10:56:27.231Z,3.90
2018-02-17T10:59:01.371Z,3.90
2018-02-17T11:01:29.220Z,4.00
2018-02-17T11:03:56.947Z,4.00
2018-02-17T11:06:25.442Z,4.20
2018-02-17T11:08:53.295Z,4.20
2018-02-17T11:11:21.796Z,4.50
2018-02-17T11:13:49.550Z,4.50
2018-02-17T11:16:18.042Z,4.60
2018-02-17T11:18:49.362Z,4.60
2018-02-17T11:21:19.993Z,4.70
2018-02-17T11:23:51.276Z,4.70
2018-02-17T11:26:22.249Z,4.70
2018-02-17T11:28:53.656Z,4.40
2018-02-17T11:31:24.593Z,4.50
2018-02-17T11:33:55.308Z,4.50
2018-02-17T11:36:26.354Z,4.30
2018-02-17T11:38:57.016Z,4.10
2018-02-17T11:41:28.267Z,4.30
2018-02-17T11:43:58.372Z,4.40
2018-02-17T11:46:29.068Z,4.50
2018-02-17T11:48:59.951Z,4.50
2018-02-17T11:51:31.433Z,4.50
2018-02-17T11:54:03.050Z,4.80
2018-02-17T11:56:30.937Z,4.80
2018-02-17T11:58:58.672Z,5.00
2018-02-17T12:01:27.166Z,5.00
2018-02-17T12:03:54.894Z,4.90
2018-02-17T12:06:22.627Z,5.10
2018-02-17T12:08:50.354Z,5.20
2018-02-17T12:11:18.840Z,5.00
2018-02-17T12:13:46.562Z,5.00
2018-02-17T12:16:14.294Z,5.00
2018-02-17T12:18:42.094Z,5.00
2018-02-17T12:21:09.825Z,5.20
2018-02-17T12:23:37.598Z,5.20
2018-02-17T12:26:05.338Z,5.30
2018-02-17T12:28:33.121Z,5.30
2018-02-17T12:31:00.852Z,5.50
2018-02-17T12:33:28.611Z,5.70
2018-02-17T12:35:57.100Z,5.80
2018-02-17T12:38:25.581Z,5.90
2018-02-17T12:40:53.301Z,5.90
2018-02-17T12:43:21.019Z,6.10
2018-02-17T12:45:48.780Z,6.10
2018-02-17T12:48:16.695Z,6.20
2018-02-17T12:50:44.453Z,6.30
2018-02-17T12:53:12.174Z,6.20
2018-02-17T12:55:39.890Z,6.30
2018-02-17T12:58:07.657Z,6.40
2018-02-17T13:00:35.386Z,6.50
2018-02-17T13:03:03.606Z,6.50
2018-02-17T13:05:31.349Z,6.60
2018-02-17T13:07:59.065Z,6.70
2018-02-17T13:10:27.542Z,6.70
2018-02-17T13:12:56.091Z,6.60
2018-02-17T13:15:26.450Z,6.60
2018-02-17T13:17:54.255Z,6.40
2018-02-17T13:20:21.983Z,6.40
2018-02-17T13:22:50.483Z,6.20
2018-02-17T13:25:18.206Z,6.10
2018-02-17T13:27:45.939Z,6.20
2018-02-17T13:30:13.678Z,6.20
2018-02-17T13:32:41.396Z,6.10
2018-02-17T13:35:09.167Z,6.00
2018-02-17T13:37:36.938Z,6.10
2018-02-17T13:40:05.810Z,6.00
2018-02-17T13:42:33.546Z,5.90
2018-02-17T13:45:01.322Z,6.10
2018-02-17T13:47:29.054Z,6.20
2018-02-17T13:49:56.791Z,6.30
2018-02-17T13:52:25.281Z,6.40
2018-02-17T13:54:53.768Z,6.30
2018-02-17T13:57:22.256Z,6.00
2018-02-17T13:59:49.986Z,6.00
2018-02-17T14:02:17.722Z,6.10
2018-02-17T14:04:45.446Z,6.10
2018-02-17T14:07:13.179Z,6.30
2018-02-17T14:09:40.894Z,6.30
2018-02-17T14:12:08.614Z,6.20
2018-02-17T14:14:36.392Z,6.20
2018-02-17T14:17:04.918Z,6.00
2018-02-17T14:19:32.639Z,6.00
2018-02-17T14:22:01.126Z,5.80
2018-02-17T14:24:29.611Z,5.90
2018-02-17T14:26:58.085Z,5.80
2018-02-17T14:29:26.572Z,5.70
2018-02-17T14:31:55.067Z,5.80
2018-02-17T14:34:22.787Z,5.80
2018-02-17T14:36:50.505Z,5.90
2018-02-17T14:39:18.283Z,5.90
2018-02-17T14:41:45.998Z,5.90
2018-02-17T14:44:14.479Z,5.70
2018-02-17T14:46:42.968Z,5.60
2018-02-17T14:49:11.501Z,5.80
2018-02-17T14:51:39.267Z,5.80
2018-02-17T14:54:06.986Z,5.80
2018-02-17T14:56:35.466Z,6.10
2018-02-17T14:59:03.951Z,6.20
2018-02-17T15:01:32.430Z,6.30
2018-02-17T15:04:00.914Z,6.40
2018-02-17T15:06:29.455Z,6.30
2018-02-17T15:08:57.155Z,6.30
2018-02-17T15:11:25.639Z,6.30
2018-02-17T15:13:54.143Z,6.10
2018-02-17T15:16:21.862Z,6.10
2018-02-17T15:18:49.583Z,5.90
2018-02-17T15:21:17.363Z,5.70
2018-02-17T15:23:45.130Z,5.60
2018-02-17T15:26:12.842Z,5.80
2018-02-17T15:28:41.328Z,5.50
2018-02-17T15:31:09.813Z,5.50
2018-02-17T15:33:38.290Z,5.40
2018-02-17T15:36:06.774Z,5.30
2018-02-17T15:38:35.326Z,5.30
2018-02-17T15:41:03.997Z,5.30
2018-02-17T15:43:31.799Z,5.30
2018-02-17T15:46:00.282Z,5.40
2018-02-17T15:48:29.549Z,5.50
2018-02-17T15:50:57.274Z,5.40
2018-02-17T15:53:25.025Z,5.40
2018-02-17T15:55:52.745Z,5.50
2018-02-17T15:58:20.480Z,5.50
2018-02-17T16:00:48.254Z,5.50
2018-02-17T16:03:15.974Z,5.50
2018-02-17T16:05:44.457Z,5.50
2018-02-17T16:08:12.943Z,5.50
2018-02-17T16:10:42.254Z,5.50
2018-02-17T16:13:09.971Z,5.50
2018-02-17T16:15:37.682Z,5.60
2018-02-17T16:18:05.442Z,5.70
2018-02-17T16:20:33.251Z,5.70
2018-02-17T16:23:01.004Z,5.80
2018-02-17T16:25:28.754Z,5.80
2018-02-17T16:27:56.514Z,5.80
2018-02-17T16:30:24.224Z,5.80
2018-02-17T16:32:51.939Z,5.80
2018-02-17T16:35:19.672Z,5.80
2018-02-17T16:37:48.162Z,5.70
2018-02-17T16:40:16.662Z,5.70
2018-02-17T16:42:44.433Z,5.70
2018-02-17T16:45:12.147Z,5.60
2018-02-17T16:47:39.866Z,5.50
2018-02-17T16:50:07.627Z,5.40
2018-02-17T16:52:35.348Z,5.20
2018-02-17T16:55:03.065Z,5.20
2018-02-17T16:57:30.783Z,5.20
2018-02-17T16:59:59.280Z,5.10
2018-02-17T17:02:27.766Z,5.00
2018-02-17T17:04:55.493Z,5.00
2018-02-17T17:07:23.330Z,5.00
2018-02-17T17:09:51.066Z,4.90
2018-02-17T17:12:18.781Z,4.90
2018-02-17T17:14:46.498Z,4.90
2018-02-17T17:17:14.229Z,4.90
2018-02-17T17:19:41.962Z,4.80
2018-02-17T17:22:09.678Z,4.80
2018-02-17T17:24:38.158Z,4.80
2018-02-17T17:27:06.646Z,4.80
2018-02-17T17:29:34.406Z,4.70
2018-02-17T17:32:02.939Z,4.70
2018-02-17T17:34:30.702Z,4.70
2018-02-17T17:36:58.426Z,4.60
2018-02-17T17:39:26.146Z,4.60
2018-02-17T17:41:53.862Z,4.70
2018-02-17T17:44:21.625Z,4.70
2018-02-17T17:46:49.371Z,4.70
2018-02-17T17:49:17.854Z,4.80
2018-02-17T17:51:46.338Z,4.70
2018-02-17T17:54:15.074Z,4.70
2018-02-17T17:56:42.789Z,4.70
2018-02-17T17:59:11.270Z,4.70
2018-02-17T18:01:40.730Z,4.60
2018-02-17T18:04:09.263Z,4.50
2018-02-17T18:06:36.973Z,4.50
2018-02-17T18:09:05.555Z,4.40
2018-02-17T18:11:34.347Z,4.30
2018-02-17T18:14:03.136Z,4.20
2018-02-17T18:16:32.341Z,4.20
2018-02-17T18:19:00.117Z,4.10
2018-02-17T18:21:27.850Z,4.10
2018-02-17T18:23:55.732Z,4.10
2018-02-17T18:26:23.449Z,4.10
2018-02-17T18:28:51.165Z,4.10
2018-02-17T18:31:18.929Z,4.10
2018-02-17T18:33:46.646Z,4.10
2018-02-17T18:36:14.366Z,4.10
2018-02-17T18:38:42.082Z,4.10
2018-02-17T18:41:09.798Z,4.10
2018-02-17T18:43:37.511Z,4.00
2018-02-17T18:46:05.250Z,4.00
2018-02-17T18:48:33.739Z,4.00
2018-02-17T18:51:02.215Z,4.00
2018-02-17T18:53:30.714Z,4.00
2018-02-17T18:55:58.428Z,4.00
2018-02-17T18:58:26.178Z,4.00
2018-02-17T19:00:53.890Z,3.90
2018-02-17T19:03:22.394Z,3.80
2018-02-17T19:05:50.106Z,3.80
2018-02-17T19:08:17.822Z,3.80
2018-02-17T19:10:45.581Z,3.70
2018-02-17T19:13:13.342Z,3.70
2018-02-17T19:15:41.063Z,3.70
2018-02-17T19:18:08.778Z,3.70
2018-02-17T19:20:36.498Z,3.60
2018-02-17T19:23:04.222Z,3.60
2018-02-17T19:25:31.941Z,3.60
2018-02-17T19:28:00.422Z,3.50
2018-02-17T19:30:28.938Z,3.40
2018-02-17T19:32:56.658Z,3.40
2018-02-17T19:35:24.374Z,3.40
2018-02-17T19:37:52.093Z,3.40
2018-02-17T19:40:20.571Z,3.30
2018-02-17T19:42:49.075Z,3.20
2018-02-17T19:45:16.803Z,3.20
2018-02-17T19:47:44.565Z,3.20
2018-02-17T19:50:12.301Z,3.20
2018-02-17T19:52:40.045Z,3.10
2018-02-17T19:55:07.810Z,3.10
2018-02-17T19:57:35.574Z,3.00
2018-02-17T20:00:03.403Z,3.00
2018-02-17T20:02:31.122Z,2.90
2018-02-17T20:04:58.859Z,2.80
2018-02-17T20:07:26.581Z,2.80
2018-02-17T20:09:54.300Z,2.80
2018-02-17T20:12:22.019Z,2.70
2018-02-17T20:14:49.739Z,2.70
2018-02-17T20:17:17.457Z,2.70
2018-02-17T20:19:45.941Z,2.60
2018-02-17T20:22:14.429Z,2.60
2018-02-17T20:24:42.910Z,2.50
2018-02-17T20:27:11.393Z,2.50
2018-02-17T20:29:39.874Z,2.40
2018-02-17T20:32:08.362Z,2.30
2018-02-17T20:34:36.855Z,2.20
2018-02-17T20:37:04.596Z,2.20
2018-02-17T20:39:32.342Z,2.10
2018-02-17T20:42:00.082Z,2.10
2018-02-17T20:44:27.810Z,2.10
2018-02-17T20:46:55.546Z,2.10
2018-02-17T20:49:23.266Z,2.10
2018-02-17T20:51:51.057Z,2.00
2018-02-17T20:54:18.779Z,1.90
2018-02-17T20:56:46.607Z,1.90
2018-02-17T20:59:14.322Z,1.90
2018-02-17T21:01:42.057Z,1.80
2018-02-17T21:04:09.779Z,1.70
2018-02-17T21:06:37.508Z,1.70
2018-02-17T21:09:05.254Z,1.60
2018-02-17T21:11:32.974Z,1.60
2018-02-17T21:14:00.703Z,1.50
2018-02-17T21:16:28.443Z,1.50
2018-02-17T21:18:56.165Z,1.50
2018-02-17T21:21:23.898Z,1.40
2018-02-17T21:23:51.614Z,1.30
2018-02-17T21:26:20.114Z,1.20
2018-02-17T21:28:48.601Z,1.20
2018-02-17T21:31:16.322Z,1.20
2018-02-17T21:33:44.059Z,1.10
2018-02-17T21:36:11.780Z,1.10
2018-02-17T21:38:40.258Z,1.10
2018-02-17T21:41:08.750Z,1.10
2018-02-17T21:43:37.268Z,1.00
2018-02-17T21:46:05.002Z,1.00
2018-02-17T21:48:32.722Z,1.00
2018-02-17T21:51:00.435Z,0.90
2018-02-17T21:53:28.167Z,0.80
2018-02-17T21:55:55.878Z,0.80
2018-02-17T21:58:23.611Z,0.80
2018-02-17T22:00:52.111Z,0.80
2018-02-17T22:03:19.838Z,0.70
2018-02-17T22:05:47.562Z,0.80
2018-02-17T22:08:15.286Z,0.70
2018-02-17T22:10:43.766Z,0.60
2018-02-17T22:13:12.251Z,0.60
2018-02-17T22:15:40.738Z,0.50
2018-02-17T22:18:08.459Z,0.50
2018-02-17T22:20:36.175Z,0.50
2018-02-17T22:23:03.901Z,0.60
2018-02-17T22:25:31.630Z,0.50
2018-02-17T22:27:59.350Z,0.40
2018-02-17T22:30:27.834Z,0.60
2018-02-17T22:32:56.338Z,0.70
2018-02-17T22:35:24.105Z,0.60
2018-02-17T22:37:51.831Z,0.70
2018-02-17T22:40:20.314Z,0.80
2018-02-17T22:42:48.799Z,0.80
2018-02-17T22:45:17.282Z,0.80
2018-02-17T22:47:45.810Z,0.80
2018-02-17T22:50:13.550Z,0.70
2018-02-17T22:52:41.274Z,0.70
2018-02-17T22:55:08.989Z,0.70
2018-02-17T22:57:36.714Z,0.70
2018-02-17T23:00:04.850Z,0.60
2018-02-17T23:02:32.569Z,0.60
2018-02-17T23:05:01.067Z,0.50
2018-02-17T23:07:28.818Z,0.50
2018-02-17T23:09:57.303Z,0.50
2018-02-17T23:12:25.022Z,0.40
2018-02-17T23:14:52.742Z,0.40
2018-02-17T23:17:20.462Z,0.40
2018-02-17T23:19:48.221Z,0.40
2018-02-17T23:22:15.938Z,0.40
2018-02-17T23:24:43.666Z,0.30
2018-02-17T23:27:12.218Z,0.40
2018-02-17T23:29:39.943Z,0.30
2018-02-17T23:32:07.678Z,0.30
2018-02-17T23:34:36.162Z,0.30
2018-02-17T23:37:04.652Z,0.20
2018-02-17T23:39:33.195Z,0.20
2018-02-17T23:42:00.927Z,0.20
2018-02-17T23:44:28.661Z,0.20
2018-02-17T23:46:57.142Z,0.10
2018-02-17T23:49:25.629Z,0.10
2018-02-17T23:51:54.155Z,0.10
2018-02-17T23:54:21.869Z,0.00
2018-02-17T23:56:49.642Z,0.00
2018-02-17T23:59:18.140Z,0.10
